createdAt,value
2022-08-03T00:00:26.496Z,3.13
2022-08-03T00:02:53.739Z,2.67
2022-08-03T00:05:21.233Z,2.93
2022-08-03T00:07:49.386Z,2.77
2022-08-03T00:10:16.888Z,3.67
2022-08-03T00:12:43.975Z,3.03
2022-08-03T00:15:15.238Z,3.23
2022-08-03T00:17:52.650Z,2.83
2022-08-03T00:20:22.169Z,2.80
2022-08-03T00:22:50.104Z,3.30
2022-08-03T00:25:17.676Z,3.07
2022-08-03T00:27:44.458Z,3.10
2022-08-03T00:30:12.076Z,3.90
2022-08-03T00:32:45.161Z,2.83
2022-08-03T00:35:36.470Z,3.50
2022-08-03T00:37:59.879Z,3.03
2022-08-03T00:40:27.041Z,3.03
2022-08-03T00:42:58.910Z,3.33
2022-08-03T00:45:34.921Z,2.77
2022-08-03T00:48:03.093Z,2.97
2022-08-03T00:50:31.780Z,3.00
2022-08-03T00:52:59.816Z,3.13
2022-08-03T00:55:27.172Z,2.93
2022-08-03T00:57:55.008Z,2.60
2022-08-03T01:00:24.530Z,2.90
2022-08-03T01:02:52.603Z,2.60
2022-08-03T01:05:23.226Z,2.70
2022-08-03T01:08:13.467Z,2.97
2022-08-03T01:11:08.173Z,2.67
2022-08-03T01:14:01.875Z,3.30
2022-08-03T01:16:56.014Z,2.97
2022-08-03T01:19:46.937Z,3.50
2022-08-03T01:22:23.866Z,2.80
2022-08-03T01:25:09.283Z,2.80
2022-08-03T01:27:54.777Z,3.07
2022-08-03T01:30:24.975Z,3.20
2022-08-03T01:33:17.377Z,2.77
2022-08-03T01:36:03.336Z,2.70
2022-08-03T01:38:34.629Z,2.90
2022-08-03T01:41:08.745Z,2.90
2022-08-03T01:44:27.242Z,3.10
2022-08-03T01:46:25.808Z,3.07
2022-08-03T01:48:53.828Z,2.87
2022-08-03T01:51:22.279Z,2.70
2022-08-03T01:53:52.248Z,3.30
2022-08-03T01:56:22.453Z,3.40
2022-08-03T01:58:51.316Z,2.90
2022-08-03T02:01:18.975Z,2.77
2022-08-03T02:04:00.466Z,3.27
2022-08-03T02:07:00.488Z,2.50
2022-08-03T02:09:20.708Z,2.83
2022-08-03T02:11:49.070Z,2.80
2022-08-03T02:14:17.431Z,2.33
2022-08-03T02:16:45.978Z,2.80
2022-08-03T02:19:13.880Z,3.07
2022-08-03T02:21:57.327Z,3.00
2022-08-03T02:24:29.710Z,3.40
2022-08-03T02:26:58.373Z,2.60
2022-08-03T02:29:40.168Z,2.80
2022-08-03T02:32:12.682Z,2.87
2022-08-03T02:34:42.488Z,3.00
2022-08-03T02:37:12.501Z,3.03
2022-08-03T02:39:42.369Z,2.53
2022-08-03T02:42:12.197Z,2.80
2022-08-03T02:44:41.649Z,2.80
2022-08-03T02:47:10.935Z,2.60
2022-08-03T02:49:50.487Z,3.00
2022-08-03T02:52:21.578Z,3.00
2022-08-03T02:54:52.564Z,3.33
2022-08-03T02:57:21.369Z,3.00
2022-08-03T02:59:48.966Z,2.80
2022-08-03T03:02:17.322Z,3.60
2022-08-03T03:05:53.401Z,2.93
2022-08-03T03:07:39.802Z,3.10
2022-08-03T03:10:24.881Z,3.00
2022-08-03T03:12:57.013Z,3.57
2022-08-03T03:15:25.835Z,3.40
2022-08-03T03:17:53.736Z,3.13
2022-08-03T03:20:29.380Z,3.53
2022-08-03T03:22:59.961Z,3.53
2022-08-03T03:25:28.183Z,3.47
2022-08-03T03:27:55.497Z,3.63
2022-08-03T03:30:25.282Z,3.60
2022-08-03T03:32:52.635Z,3.70
2022-08-03T03:35:20.246Z,3.43
2022-08-03T03:37:47.123Z,3.43
2022-08-03T03:40:14.564Z,2.63
2022-08-03T03:42:41.747Z,3.43
2022-08-03T03:45:09.888Z,2.90
2022-08-03T03:47:37.404Z,3.33
2022-08-03T03:50:05.930Z,3.10
2022-08-03T03:52:33.585Z,3.40
2022-08-03T03:55:01.536Z,2.97
2022-08-03T03:57:29.483Z,3.50
2022-08-03T03:59:56.827Z,2.80
2022-08-03T04:02:23.797Z,3.47
2022-08-03T04:05:09.069Z,3.67
2022-08-03T04:08:16.225Z,3.37
2022-08-03T04:10:59.320Z,3.53
2022-08-03T04:13:35.426Z,3.40
2022-08-03T04:16:04.210Z,2.87
2022-08-03T04:18:34.522Z,3.20
2022-08-03T04:21:09.624Z,3.10
2022-08-03T04:23:40.808Z,3.00
2022-08-03T04:26:12.234Z,3.50
2022-08-03T04:28:43.259Z,3.07
2022-08-03T04:31:10.443Z,2.67
2022-08-03T04:33:39.617Z,2.93
2022-08-03T04:36:09.204Z,3.03
2022-08-03T04:39:04.522Z,2.93
2022-08-03T04:42:04.766Z,3.03
2022-08-03T04:44:28.111Z,3.00
2022-08-03T04:46:56.803Z,3.87
2022-08-03T04:49:24.356Z,3.23
2022-08-03T04:51:51.614Z,3.30
2022-08-03T04:54:18.505Z,3.10
2022-08-03T04:56:45.328Z,3.13
2022-08-03T04:59:12.900Z,3.10
2022-08-03T05:01:42.242Z,2.80
2022-08-03T05:04:09.421Z,3.40
2022-08-03T05:06:36.283Z,2.90
2022-08-03T05:09:08.517Z,3.13
2022-08-03T05:11:35.504Z,3.27
2022-08-03T05:14:02.489Z,2.90
2022-08-03T05:16:29.301Z,3.20
2022-08-03T05:18:56.129Z,3.67
2022-08-03T05:21:22.902Z,3.47
2022-08-03T05:23:49.699Z,3.67
2022-08-03T05:26:16.609Z,2.97
2022-08-03T05:28:50.556Z,3.60
2022-08-03T05:31:18.238Z,3.00
2022-08-03T05:33:45.152Z,3.00
2022-08-03T05:36:12.631Z,3.10
2022-08-03T05:38:39.639Z,3.73
2022-08-03T05:41:20.271Z,3.00
2022-08-03T05:43:54.499Z,3.07
2022-08-03T05:46:22.414Z,3.60
2022-08-03T05:48:49.470Z,2.90
2022-08-03T05:51:16.405Z,3.67
2022-08-03T05:53:44.444Z,3.27
2022-08-03T05:56:15.334Z,3.20
2022-08-03T05:58:48.925Z,3.37
2022-08-03T06:01:17.240Z,3.23
2022-08-03T06:03:47.013Z,3.00
2022-08-03T06:06:14.289Z,3.40
2022-08-03T06:08:42.262Z,3.20
2022-08-03T06:11:09.851Z,3.40
2022-08-03T06:13:37.180Z,3.03
2022-08-03T06:16:04.172Z,3.20
2022-08-03T06:18:32.189Z,3.50
2022-08-03T06:21:00.224Z,3.07
2022-08-03T06:23:54.015Z,3.23
2022-08-03T06:26:25.468Z,4.10
2022-08-03T06:28:54.476Z,3.10
2022-08-03T06:31:33.054Z,3.23
2022-08-03T06:34:32.504Z,2.60
2022-08-03T06:36:51.072Z,3.30
2022-08-03T06:39:19.745Z,3.70
2022-08-03T06:41:46.563Z,2.50
2022-08-03T06:44:13.666Z,2.83
2022-08-03T06:46:40.903Z,2.50
2022-08-03T06:49:08.320Z,2.90
2022-08-03T06:52:05.602Z,2.80
2022-08-03T06:54:22.443Z,2.80
2022-08-03T06:56:49.592Z,2.80
2022-08-03T07:00:06.594Z,2.97
2022-08-03T07:02:03.920Z,2.67
2022-08-03T07:04:31.095Z,2.90
2022-08-03T07:06:58.586Z,2.43
2022-08-03T07:09:26.944Z,2.70
2022-08-03T07:11:54.487Z,2.80
2022-08-03T07:14:21.921Z,2.50
2022-08-03T07:16:50.064Z,2.80
2022-08-03T07:19:17.057Z,2.60
2022-08-03T07:21:43.955Z,2.80
2022-08-03T07:24:11.000Z,2.03
2022-08-03T07:26:37.995Z,2.30
2022-08-03T07:29:11.771Z,2.20
2022-08-03T07:31:42.377Z,2.40
2022-08-03T07:34:09.342Z,2.03
2022-08-03T07:36:36.476Z,2.40
2022-08-03T07:39:15.878Z,2.47
2022-08-03T07:41:45.433Z,1.90
2022-08-03T07:44:12.539Z,2.03
2022-08-03T07:46:39.368Z,2.10
2022-08-03T07:49:06.491Z,2.23
2022-08-03T07:51:33.569Z,1.97
2022-08-03T07:54:00.998Z,2.10
2022-08-03T07:56:28.449Z,2.07
2022-08-03T07:58:55.655Z,2.03
2022-08-03T08:01:23.359Z,1.90
2022-08-03T08:03:53.474Z,2.00
2022-08-03T08:06:21.710Z,1.90
2022-08-03T08:08:48.803Z,1.97
2022-08-03T08:11:15.869Z,1.80
2022-08-03T08:13:43.079Z,1.87
2022-08-03T08:16:10.119Z,1.53
2022-08-03T08:18:37.211Z,1.70
2022-08-03T08:21:04.268Z,1.63
2022-08-03T08:23:43.768Z,1.40
2022-08-03T08:26:13.231Z,1.53
2022-08-03T08:28:40.528Z,1.50
2022-08-03T08:31:07.922Z,1.47
2022-08-03T08:34:03.012Z,1.10
2022-08-03T08:36:24.182Z,1.37
2022-08-03T08:38:51.026Z,1.70
2022-08-03T08:41:17.974Z,1.67
2022-08-03T08:43:45.044Z,1.87
2022-08-03T08:46:13.375Z,1.20
2022-08-03T08:48:52.105Z,1.17
2022-08-03T08:51:21.033Z,1.40
2022-08-03T08:53:52.927Z,1.60
2022-08-03T08:56:20.570Z,1.17
2022-08-03T08:58:58.284Z,1.60
2022-08-03T09:01:25.277Z,1.40
2022-08-03T09:03:54.173Z,1.33
2022-08-03T09:06:24.821Z,1.60
2022-08-03T09:08:51.820Z,1.40
2022-08-03T09:12:00.918Z,1.23
2022-08-03T09:14:36.997Z,1.40
2022-08-03T09:17:02.340Z,1.20
2022-08-03T09:19:33.992Z,1.37
2022-08-03T09:22:11.347Z,1.40
2022-08-03T09:24:41.726Z,1.50
2022-08-03T09:27:17.137Z,1.10
2022-08-03T09:29:48.742Z,1.60
2022-08-03T09:32:19.334Z,1.10
2022-08-03T09:34:55.351Z,1.33
2022-08-03T09:38:12.251Z,1.40
2022-08-03T09:40:39.240Z,1.60
2022-08-03T09:43:08.405Z,2.00
2022-08-03T09:45:40.238Z,1.90
2022-08-03T09:48:28.338Z,1.50
2022-08-03T09:51:13.575Z,1.40
2022-08-03T09:53:57.271Z,1.50
2022-08-03T09:56:47.575Z,1.40
2022-08-03T09:59:24.622Z,1.40
2022-08-03T10:01:53.996Z,1.30
2022-08-03T10:04:21.403Z,1.10
2022-08-03T10:07:09.493Z,1.40
2022-08-03T10:09:37.792Z,1.33
2022-08-03T10:12:09.754Z,1.40
2022-08-03T10:14:46.838Z,1.30
2022-08-03T10:17:13.992Z,1.27
2022-08-03T10:19:44.230Z,1.30
2022-08-03T10:22:15.222Z,1.20
2022-08-03T10:25:03.068Z,1.53
2022-08-03T10:27:36.817Z,1.30
2022-08-03T10:30:07.055Z,1.30
2022-08-03T10:32:55.064Z,1.00
2022-08-03T10:35:23.917Z,1.10
2022-08-03T10:38:01.586Z,1.20
2022-08-03T10:40:49.541Z,1.37
2022-08-03T10:43:34.306Z,1.37
2022-08-03T10:46:05.191Z,1.60
2022-08-03T10:48:32.900Z,1.40
2022-08-03T10:50:59.882Z,1.57
2022-08-03T10:53:38.212Z,1.30
2022-08-03T10:56:35.707Z,1.30
2022-08-03T10:59:11.740Z,1.10
2022-08-03T11:02:00.687Z,1.30
2022-08-03T11:04:30.142Z,1.13
2022-08-03T11:07:26.523Z,1.10
2022-08-03T11:09:55.203Z,1.30
2022-08-03T11:12:31.680Z,1.20
2022-08-03T11:15:10.556Z,1.40
2022-08-03T11:17:46.660Z,1.27
2022-08-03T11:20:59.362Z,1.30
2022-08-03T11:24:02.729Z,1.50
2022-08-03T11:26:33.366Z,1.40
2022-08-03T11:29:29.482Z,1.20
2022-08-03T11:31:56.561Z,1.47
2022-08-03T11:34:24.612Z,1.17
2022-08-03T11:37:22.313Z,1.20
2022-08-03T11:39:53.012Z,1.37
2022-08-03T11:42:22.949Z,1.10
2022-08-03T11:45:00.472Z,1.30
2022-08-03T11:47:30.004Z,1.20
2022-08-03T11:50:02.064Z,1.20
2022-08-03T11:52:35.807Z,1.17
2022-08-03T11:55:08.312Z,1.67
2022-08-03T11:59:00.885Z,1.30
2022-08-03T12:00:31.392Z,1.30
2022-08-03T12:03:01.259Z,1.17
2022-08-03T12:05:54.822Z,1.10
2022-08-03T12:08:27.744Z,1.20
2022-08-03T12:10:56.791Z,1.10
2022-08-03T12:14:45.161Z,1.50
2022-08-03T12:16:22.618Z,1.20
2022-08-03T12:18:57.573Z,1.30
2022-08-03T12:21:25.138Z,1.43
2022-08-03T12:23:59.218Z,1.43
2022-08-03T12:26:26.889Z,1.30
2022-08-03T12:28:53.777Z,1.37
2022-08-03T12:31:20.839Z,1.40
2022-08-03T12:34:00.256Z,1.43
2022-08-03T12:36:28.609Z,1.33
2022-08-03T12:38:58.143Z,1.30
2022-08-03T12:41:34.785Z,1.30
2022-08-03T12:44:03.761Z,1.50
2022-08-03T12:46:39.423Z,1.00
2022-08-03T12:49:11.041Z,1.20
2022-08-03T12:52:05.260Z,1.20
2022-08-03T12:54:36.155Z,1.13
2022-08-03T12:57:02.963Z,1.33
2022-08-03T12:59:35.141Z,1.00
2022-08-03T13:02:09.558Z,1.07
2022-08-03T13:04:37.011Z,1.03
2022-08-03T13:07:06.569Z,1.40
2022-08-03T13:09:55.277Z,1.23
2022-08-03T13:12:27.713Z,1.00
2022-08-03T13:15:01.084Z,1.30
2022-08-03T13:17:28.632Z,1.07
2022-08-03T13:19:56.514Z,1.10
2022-08-03T13:22:25.873Z,1.40
2022-08-03T13:24:57.778Z,1.47
2022-08-03T13:28:04.598Z,1.40
2022-08-03T13:30:12.924Z,1.70
2022-08-03T13:32:40.276Z,1.50
2022-08-03T13:35:08.706Z,1.37
2022-08-03T13:37:35.907Z,1.37
2022-08-03T13:40:06.373Z,1.40
2022-08-03T13:42:35.348Z,1.33
2022-08-03T13:45:03.913Z,1.60
2022-08-03T13:47:31.101Z,1.70
2022-08-03T13:50:01.730Z,2.50
2022-08-03T13:52:31.312Z,1.80
2022-08-03T13:54:58.782Z,1.37
2022-08-03T13:58:02.453Z,1.70
2022-08-03T14:00:13.444Z,1.40
2022-08-03T14:02:55.339Z,1.30
2022-08-03T14:05:25.599Z,1.33
2022-08-03T14:07:52.430Z,1.20
2022-08-03T14:10:25.199Z,1.60
2022-08-03T14:12:52.509Z,1.50
2022-08-03T14:15:19.544Z,1.40
2022-08-03T14:17:49.869Z,1.33
2022-08-03T14:20:36.813Z,1.30
2022-08-03T14:23:04.166Z,1.50
2022-08-03T14:25:43.076Z,1.50
2022-08-03T14:28:18.727Z,1.80
2022-08-03T14:30:46.155Z,1.40
2022-08-03T14:33:13.201Z,1.30
2022-08-03T14:35:40.317Z,1.33
2022-08-03T14:38:07.441Z,1.40
2022-08-03T14:40:34.386Z,1.70
2022-08-03T14:43:02.514Z,1.13
2022-08-03T14:45:29.621Z,1.60
2022-08-03T14:50:29.293Z,1.27
2022-08-03T14:50:50.318Z,1.13
2022-08-03T14:53:18.405Z,1.27
2022-08-03T14:55:50.375Z,1.47
2022-08-03T14:58:25.452Z,1.20
2022-08-03T15:00:53.702Z,1.27
2022-08-03T15:03:23.838Z,1.30
2022-08-03T15:05:55.920Z,1.33
2022-08-03T15:08:24.435Z,1.13
2022-08-03T15:10:51.597Z,1.43
2022-08-03T15:13:19.866Z,1.13
2022-08-03T15:15:46.874Z,1.20
2022-08-03T15:18:13.836Z,1.17
2022-08-03T15:20:45.886Z,1.40
2022-08-03T15:23:15.079Z,1.13
2022-08-03T15:26:27.884Z,1.20
2022-08-03T15:28:30.252Z,1.27
2022-08-03T15:30:57.191Z,1.20
2022-08-03T15:33:24.239Z,1.27
2022-08-03T15:35:51.218Z,1.00
2022-08-03T15:38:18.238Z,1.33
2022-08-03T15:40:45.407Z,1.23
2022-08-03T15:43:12.462Z,1.37
2022-08-03T15:45:40.698Z,1.30
2022-08-03T15:48:08.986Z,1.30
2022-08-03T15:50:35.935Z,1.17
2022-08-03T15:53:03.511Z,1.20
2022-08-03T15:55:31.180Z,1.10
2022-08-03T15:59:04.203Z,1.27
2022-08-03T16:00:45.036Z,1.30
2022-08-03T16:03:11.861Z,1.20
2022-08-03T16:05:38.735Z,1.43
2022-08-03T16:08:07.995Z,1.13
2022-08-03T16:10:38.641Z,1.17
2022-08-03T16:13:05.406Z,1.30
2022-08-03T16:15:32.505Z,1.27
2022-08-03T16:18:06.538Z,1.30
2022-08-03T16:20:35.104Z,1.00
2022-08-03T16:23:11.615Z,1.27
2022-08-03T16:25:49.318Z,1.30
2022-08-03T16:28:17.068Z,1.30
2022-08-03T16:30:45.600Z,1.27
2022-08-03T16:33:16.761Z,1.40
2022-08-03T16:35:45.825Z,1.40
2022-08-03T16:38:16.730Z,1.27
2022-08-03T16:40:47.231Z,1.10
2022-08-03T16:43:18.171Z,0.97
2022-08-03T16:45:45.524Z,1.20
2022-08-03T16:48:12.349Z,1.30
2022-08-03T16:50:39.743Z,1.20
2022-08-03T16:53:09.176Z,1.30
2022-08-03T16:55:48.715Z,1.23
2022-08-03T16:58:41.764Z,1.30
2022-08-03T17:01:21.521Z,1.33
2022-08-03T17:04:02.444Z,1.40
2022-08-03T17:06:36.265Z,1.30
2022-08-03T17:09:12.625Z,1.30
2022-08-03T17:11:46.394Z,1.10
2022-08-03T17:14:16.261Z,1.20
2022-08-03T17:16:53.002Z,1.33
2022-08-03T17:19:23.849Z,1.20
2022-08-03T17:22:15.953Z,1.30
2022-08-03T17:24:50.883Z,1.27
2022-08-03T17:28:42.025Z,1.33
2022-08-03T17:30:11.949Z,1.37
2022-08-03T17:32:52.394Z,1.30
2022-08-03T17:35:34.216Z,1.20
2022-08-03T17:38:06.610Z,1.20
2022-08-03T17:40:34.745Z,1.40
2022-08-03T17:44:13.083Z,1.37
2022-08-03T17:45:54.716Z,1.13
2022-08-03T17:48:24.850Z,1.13
2022-08-03T17:50:58.203Z,1.57
2022-08-03T17:53:30.706Z,1.37
2022-08-03T17:56:40.462Z,1.20
2022-08-03T17:59:16.880Z,1.10
2022-08-03T18:02:47.479Z,1.30
2022-08-03T18:05:17.681Z,1.40
2022-08-03T18:07:59.512Z,1.20
2022-08-03T18:10:34.986Z,1.50
2022-08-03T18:13:10.535Z,1.60
2022-08-03T18:15:54.577Z,1.40
2022-08-03T18:18:32.713Z,1.13
2022-08-03T18:21:06.469Z,1.10
2022-08-03T18:23:37.736Z,1.50
2022-08-03T18:26:12.266Z,1.30
2022-08-03T18:28:40.446Z,1.20
2022-08-03T18:31:11.445Z,1.33
2022-08-03T18:34:16.481Z,1.33
2022-08-03T18:36:30.343Z,1.50
2022-08-03T18:38:59.654Z,1.40
2022-08-03T18:41:33.594Z,1.93
2022-08-03T18:44:08.242Z,1.33
2022-08-03T18:47:01.565Z,1.40
2022-08-03T18:49:53.345Z,1.60
2022-08-03T18:52:35.499Z,1.60
2022-08-03T18:55:09.350Z,1.70
2022-08-03T18:58:18.259Z,1.70
2022-08-03T19:01:01.477Z,1.43
2022-08-03T19:03:41.438Z,1.80
2022-08-03T19:06:20.275Z,1.70
2022-08-03T19:09:07.307Z,1.63
2022-08-03T19:12:12.282Z,1.70
2022-08-03T19:14:44.144Z,1.30
2022-08-03T19:17:12.506Z,1.70
2022-08-03T19:19:44.887Z,1.50
2022-08-03T19:22:19.598Z,1.80
2022-08-03T19:24:47.915Z,1.97
2022-08-03T19:27:16.073Z,1.77
2022-08-03T19:29:59.017Z,1.97
2022-08-03T19:32:31.988Z,2.10
2022-08-03T19:35:00.731Z,2.20
2022-08-03T19:37:33.261Z,2.73
2022-08-03T19:40:10.425Z,2.00
2022-08-03T19:42:43.640Z,2.97
2022-08-03T19:45:15.482Z,2.13
2022-08-03T19:47:58.441Z,2.90
2022-08-03T19:50:25.867Z,2.40
2022-08-03T19:52:55.376Z,2.53
2022-08-03T19:55:22.836Z,2.27
2022-08-03T19:57:57.215Z,2.10
2022-08-03T20:00:26.259Z,1.80
2022-08-03T20:02:54.019Z,2.47
2022-08-03T20:05:20.933Z,2.33
2022-08-03T20:07:50.350Z,2.17
2022-08-03T20:10:18.869Z,2.40
2022-08-03T20:12:47.109Z,2.53
2022-08-03T20:15:14.500Z,2.77
2022-08-03T20:17:54.598Z,2.70
2022-08-03T20:20:39.637Z,2.67
2022-08-03T20:23:18.198Z,2.40
2022-08-03T20:25:58.473Z,2.60
2022-08-03T20:28:50.136Z,2.90
2022-08-03T20:31:32.536Z,2.67
2022-08-03T20:34:03.975Z,2.40
2022-08-03T20:36:30.844Z,2.40
2022-08-03T20:38:59.539Z,2.60
2022-08-03T20:41:26.803Z,3.13
2022-08-03T20:43:53.704Z,2.63
2022-08-03T20:46:31.802Z,2.70
2022-08-03T20:49:04.721Z,2.60
2022-08-03T20:51:50.524Z,2.30
2022-08-03T20:54:29.644Z,2.20
2022-08-03T20:56:59.779Z,2.60
2022-08-03T20:59:38.560Z,2.70
2022-08-03T21:02:19.871Z,2.47
2022-08-03T21:04:58.382Z,2.70
2022-08-03T21:07:45.966Z,3.07
2022-08-03T21:10:16.951Z,3.00
2022-08-03T21:13:16.776Z,3.00
2022-08-03T21:16:03.319Z,2.93
2022-08-03T21:18:39.711Z,3.00
2022-08-03T21:21:10.259Z,2.70
2022-08-03T21:23:47.919Z,2.90
2022-08-03T21:26:21.357Z,3.07
2022-08-03T21:28:50.597Z,3.50
2022-08-03T21:31:22.303Z,2.97
2022-08-03T21:33:55.041Z,2.87
2022-08-03T21:36:21.940Z,2.60
2022-08-03T21:38:56.689Z,3.03
2022-08-03T21:41:28.459Z,2.80
2022-08-03T21:44:02.464Z,2.90
2022-08-03T21:46:38.095Z,2.53
2022-08-03T21:50:05.455Z,2.53
2022-08-03T21:51:59.519Z,2.73
2022-08-03T21:54:34.732Z,3.10
2022-08-03T21:57:05.671Z,2.70
2022-08-03T21:59:38.148Z,2.70
2022-08-03T22:02:06.667Z,3.10
2022-08-03T22:04:56.281Z,3.30
2022-08-03T22:07:26.303Z,3.03
2022-08-03T22:09:57.943Z,3.00
2022-08-03T22:12:27.402Z,2.77
2022-08-03T22:15:01.337Z,2.80
2022-08-03T22:17:54.149Z,2.93
2022-08-03T22:20:19.327Z,2.70
2022-08-03T22:22:55.270Z,2.73
2022-08-03T22:25:29.453Z,3.07
2022-08-03T22:27:58.423Z,2.57
2022-08-03T22:30:25.412Z,2.40
2022-08-03T22:32:54.285Z,1.80
2022-08-03T22:35:23.204Z,1.70
2022-08-03T22:37:54.000Z,1.90
2022-08-03T22:40:20.887Z,1.93
2022-08-03T22:42:52.035Z,1.80
2022-08-03T22:46:07.945Z,2.47
2022-08-03T22:48:08.158Z,1.77
2022-08-03T22:50:35.230Z,2.10
2022-08-03T22:53:02.117Z,1.77
2022-08-03T22:55:29.213Z,1.93
2022-08-03T22:57:56.485Z,2.03
2022-08-03T23:00:24.077Z,1.77
2022-08-03T23:02:53.577Z,2.00
2022-08-03T23:06:01.377Z,2.27
2022-08-03T23:08:14.916Z,2.30
2022-08-03T23:10:47.194Z,1.90
2022-08-03T23:13:19.841Z,1.80
2022-08-03T23:15:55.679Z,2.00
2022-08-03T23:18:24.099Z,2.03
2022-08-03T23:20:57.519Z,1.70
2022-08-03T23:23:24.768Z,2.00
2022-08-03T23:25:52.091Z,1.60
2022-08-03T23:28:19.280Z,1.80
2022-08-03T23:30:49.015Z,1.90
2022-08-03T23:33:18.071Z,1.70
2022-08-03T23:36:28.809Z,2.00
2022-08-03T23:38:44.952Z,1.90
2022-08-03T23:41:13.464Z,2.13
2022-08-03T23:43:51.125Z,2.27
2022-08-03T23:46:24.150Z,2.03
2022-08-03T23:48:51.430Z,2.17
2022-08-03T23:51:51.903Z,2.10
2022-08-03T23:54:46.987Z,2.57
2022-08-03T23:57:22.208Z,3.77
